Time;durP1;ratioP1;P1;durP2;ratioP2;P2;SDS_P1;SDS_P2;PMS_P1;PMS_P2;Temp;Humidity;BMP_temperature;BMP_pressure;BME280_temperature;BME280_humidity;BME280_pressure;Samples;Min_cycle;Max_cycle;Signal;HPM_P1;HPM_P2
2022/01/29 00:00:54;;;;;;;17.03;8.17;;;7.10;99.90;;;;;;5073921;28;20428;-77
2022/01/29 00:03:23;;;;;;;14.80;8.60;;;7.10;99.90;;;;;;5073661;28;20198;-76
2022/01/29 00:05:50;;;;;;;15.67;8.93;;;7.10;99.90;;;;;;5073834;28;20517;-76
2022/01/29 00:08:16;;;;;;;14.23;9.03;;;7.10;99.90;;;;;;5073437;28;20412;-76
2022/01/29 00:10:44;;;;;;;14.73;7.70;;;7.20;99.90;;;;;;5078640;22;20558;-79
2022/01/29 00:13:10;;;;;;;25.13;11.70;;;7.20;99.90;;;;;;5059296;28;20494;-78
2022/01/29 00:15:36;;;;;;;12.30;8.03;;;7.20;99.90;;;;;;5058617;28;20939;-79
2022/01/29 00:18:02;;;;;;;11.77;7.70;;;7.20;99.90;;;;;;5058917;28;20413;-78
2022/01/29 00:20:28;;;;;;;16.83;10.07;;;7.20;99.90;;;;;;5059013;28;20853;-79
2022/01/29 00:22:53;;;;;;;19.40;10.00;;;7.30;99.90;;;;;;5058433;28;20472;-79
2022/01/29 00:25:19;;;;;;;17.07;8.67;;;7.30;99.90;;;;;;5058986;28;20689;-78
2022/01/29 00:27:45;;;;;;;19.27;9.80;;;7.20;99.90;;;;;;5058173;28;20178;-78
2022/01/29 00:30:16;;;;;;;21.20;9.50;;;7.20;99.90;;;;;;5059009;28;20172;-79
2022/01/29 00:32:43;;;;;;;16.83;9.20;;;7.20;99.90;;;;;;5058119;28;20468;-78
2022/01/29 00:35:09;;;;;;;15.40;9.80;;;7.20;99.90;;;;;;5058307;28;20421;-79
2022/01/29 00:37:35;;;;;;;15.97;9.53;;;7.20;99.90;;;;;;5060494;28;20421;-79
2022/01/29 00:40:01;;;;;;;18.67;8.70;;;7.20;99.90;;;;;;5061808;28;20423;-78
2022/01/29 00:42:27;;;;;;;18.27;9.97;;;7.30;99.90;;;;;;5062033;28;20462;-78
2022/01/29 00:44:53;;;;;;;20.33;9.50;;;7.30;99.90;;;;;;5061727;28;20515;-79
2022/01/29 00:47:19;;;;;;;20.47;11.30;;;7.30;99.90;;;;;;5061129;28;20183;-79
2022/01/29 00:49:44;;;;;;;19.50;10.07;;;7.30;99.90;;;;;;5061055;28;20189;-79
2022/01/29 00:52:10;;;;;;;14.03;9.80;;;7.30;99.90;;;;;;5061004;28;20576;-79
2022/01/29 00:54:37;;;;;;;18.40;11.00;;;7.30;99.90;;;;;;5060748;28;20518;-79
2022/01/29 00:57:03;;;;;;;18.20;9.60;;;7.30;99.90;;;;;;5061879;28;20179;-78
2022/01/29 00:59:28;;;;;;;16.63;9.60;;;7.30;99.90;;;;;;5060824;28;20504;-78
2022/01/29 01:01:54;;;;;;;18.73;10.33;;;7.30;99.90;;;;;;5061239;28;20464;-78
2022/01/29 01:04:20;;;;;;;21.40;10.60;;;7.40;99.90;;;;;;5060891;28;20713;-78
2022/01/29 01:06:49;;;;;;;21.63;9.53;;;7.30;99.90;;;;;;5060100;28;20214;-78
2022/01/29 01:09:14;;;;;;;19.00;11.60;;;7.30;99.90;;;;;;5060472;28;20661;-78
2022/01/29 01:11:40;;;;;;;15.43;9.20;;;7.40;99.90;;;;;;5060172;28;20445;-78
2022/01/29 01:14:06;;;;;;;18.23;9.23;;;7.40;99.90;;;;;;5061117;28;20806;-78
2022/01/29 01:16:32;;;;;;;18.13;10.17;;;7.40;99.90;;;;;;5060250;28;20184;-78
2022/01/29 01:18:58;;;;;;;23.40;10.60;;;7.40;99.90;;;;;;5060345;28;20179;-78
2022/01/29 01:21:23;;;;;;;22.57;10.00;;;7.40;99.90;;;;;;5059815;28;20428;-78
2022/01/29 01:23:49;;;;;;;17.27;9.60;;;7.50;99.90;;;;;;5059900;28;20233;-78
2022/01/29 01:26:15;;;;;;;25.07;10.30;;;7.40;99.90;;;;;;5060123;28;20214;-78
2022/01/29 01:28:43;;;;;;;22.70;10.50;;;7.30;99.90;;;;;;5059724;28;20641;-78
2022/01/29 01:31:09;;;;;;;19.27;12.13;;;7.40;99.90;;;;;;5056691;28;20202;-78
2022/01/29 01:33:35;;;;;;;18.37;10.07;;;7.40;99.90;;;;;;5055763;28;20437;-78
2022/01/29 01:36:04;;;;;;;18.73;10.50;;;7.50;99.90;;;;;;5056478;28;20600;-78
2022/01/29 01:38:39;;;;;;;18.60;10.90;;;7.40;99.90;;;;;;5056133;28;20604;-78
2022/01/29 01:41:09;;;;;;;15.90;11.17;;;7.50;99.90;;;;;;5056580;28;20433;-78
2022/01/29 01:43:35;;;;;;;22.27;11.77;;;7.50;99.90;;;;;;5056238;28;20827;-78
2022/01/29 01:46:01;;;;;;;19.93;11.03;;;7.40;99.90;;;;;;5056477;28;20465;-78
2022/01/29 01:48:27;;;;;;;19.33;11.53;;;7.40;99.90;;;;;;5055760;28;20179;-78
2022/01/29 01:50:52;;;;;;;19.63;10.80;;;7.50;99.90;;;;;;5055895;28;20179;-78
2022/01/29 01:53:18;;;;;;;20.13;11.27;;;7.40;99.90;;;;;;5056220;28;20198;-78
2022/01/29 01:55:46;;;;;;;22.90;12.07;;;7.40;99.90;;;;;;5056551;28;20179;-78
2022/01/29 01:58:12;;;;;;;16.70;10.27;;;7.30;99.90;;;;;;5056252;28;20425;-78
2022/01/29 02:00:38;;;;;;;16.13;9.97;;;7.40;99.90;;;;;;5056815;28;20429;-78
2022/01/29 02:03:03;;;;;;;21.47;11.27;;;7.40;99.90;;;;;;5056782;28;20207;-78
2022/01/29 02:05:29;;;;;;;21.13;11.97;;;7.40;99.90;;;;;;5056882;28;20210;-78
2022/01/29 02:07:56;;;;;;;19.77;10.53;;;7.40;99.90;;;;;;5056581;28;20183;-78
2022/01/29 02:10:25;;;;;;;19.17;10.53;;;7.30;99.90;;;;;;5057123;28;20195;-78
2022/01/29 02:12:57;;;;;;;25.13;10.20;;;7.30;99.90;;;;;;5056637;28;20854;-78
2022/01/29 02:15:23;;;;;;;19.40;10.33;;;7.40;99.90;;;;;;5056513;28;20433;-78
2022/01/29 02:17:49;;;;;;;18.50;11.67;;;7.30;99.90;;;;;;5056135;28;20825;-78
2022/01/29 02:20:17;;;;;;;20.10;10.70;;;7.40;99.90;;;;;;5056558;28;20429;-78
2022/01/29 02:22:44;;;;;;;19.97;9.87;;;7.50;99.90;;;;;;5056418;28;20462;-78
2022/01/29 02:25:37;;;;;;;16.40;10.40;;;7.50;99.90;;;;;;5056565;28;20464;-79
2022/01/29 02:28:23;;;;;;;17.47;10.63;;;7.40;99.90;;;;;;5062303;28;20445;-79
2022/01/29 02:31:01;;;;;;;20.20;11.30;;;7.50;99.90;;;;;;5062708;28;20416;-79
2022/01/29 02:33:28;;;;;;;27.07;13.17;;;7.50;99.90;;;;;;5062515;28;20796;-79
2022/01/29 02:35:55;;;;;;;19.50;11.67;;;7.40;99.90;;;;;;5062162;28;20424;-79
2022/01/29 02:38:23;;;;;;;18.23;10.50;;;7.30;99.90;;;;;;5061269;28;20562;-79
2022/01/29 02:40:53;;;;;;;20.57;10.30;;;7.40;99.90;;;;;;5061587;28;20433;-79
2022/01/29 02:43:22;;;;;;;19.90;12.10;;;7.40;99.90;;;;;;5061432;28;20441;-79
2022/01/29 02:45:51;;;;;;;20.07;10.23;;;7.50;99.90;;;;;;5061023;28;20907;-79
2022/01/29 02:48:17;;;;;;;24.07;10.77;;;7.40;99.90;;;;;;5061007;28;20436;-79
2022/01/29 02:50:44;;;;;;;23.13;11.60;;;7.40;99.90;;;;;;5060707;28;20421;-79
2022/01/29 02:53:10;;;;;;;17.67;10.37;;;7.50;99.90;;;;;;5060370;28;20437;-79
2022/01/29 02:55:39;;;;;;;19.63;11.17;;;7.50;99.90;;;;;;5060123;28;20433;-78
2022/01/29 02:58:05;;;;;;;20.00;10.70;;;7.60;99.90;;;;;;5060226;28;20430;-79
2022/01/29 03:00:31;;;;;;;23.50;11.60;;;7.50;99.90;;;;;;5059581;28;20429;-79
2022/01/29 03:02:57;;;;;;;22.47;12.23;;;7.50;99.90;;;;;;5059654;28;20755;-79
2022/01/29 03:05:22;;;;;;;19.93;10.47;;;7.40;99.90;;;;;;5059882;28;20849;-79
2022/01/29 03:07:48;;;;;;;22.10;12.43;;;7.40;99.90;;;;;;5060037;28;20177;-79
2022/01/29 03:10:15;;;;;;;22.00;11.07;;;7.40;99.90;;;;;;5059576;28;20302;-79
2022/01/29 03:12:41;;;;;;;21.07;11.47;;;7.40;99.90;;;;;;5059249;28;20240;-78
2022/01/29 03:15:09;;;;;;;20.77;11.00;;;7.50;99.90;;;;;;5059608;28;20417;-78
2022/01/29 03:17:35;;;;;;;18.83;10.03;;;7.50;99.90;;;;;;5077273;28;20454;-79
2022/01/29 03:20:02;;;;;;;18.40;12.83;;;7.50;99.90;;;;;;5058491;28;20420;-79
2022/01/29 03:22:28;;;;;;;21.00;12.70;;;7.50;99.90;;;;;;5059042;28;20975;-79
2022/01/29 03:24:53;;;;;;;22.47;11.77;;;7.50;99.90;;;;;;5058406;28;20417;-78
2022/01/29 03:27:19;;;;;;;16.97;9.90;;;7.50;99.90;;;;;;5057655;28;20262;-78
2022/01/29 03:29:48;;;;;;;16.87;12.00;;;7.50;99.90;;;;;;5056978;28;20653;-78
2022/01/29 03:32:14;;;;;;;19.23;10.97;;;7.60;99.90;;;;;;5057175;28;20264;-78
2022/01/29 03:34:40;;;;;;;20.60;11.70;;;7.50;99.90;;;;;;5057496;28;20413;-78
2022/01/29 03:37:06;;;;;;;16.83;10.67;;;7.50;99.90;;;;;;5056869;28;20182;-78
2022/01/29 03:39:34;;;;;;;17.50;11.73;;;7.50;99.90;;;;;;5056833;28;20179;-78
2022/01/29 03:42:05;;;;;;;19.90;11.57;;;7.50;99.90;;;;;;5057237;28;20650;-79
2022/01/29 03:44:31;;;;;;;21.77;11.57;;;7.50;99.90;;;;;;5057287;28;20429;-78
2022/01/29 03:46:57;;;;;;;14.97;9.47;;;7.50;99.90;;;;;;5056688;28;20591;-78
2022/01/29 03:49:23;;;;;;;19.33;10.53;;;7.60;99.90;;;;;;5057476;28;20478;-78
2022/01/29 03:51:49;;;;;;;21.40;11.23;;;7.60;99.90;;;;;;5057442;28;20189;-78
2022/01/29 03:54:14;;;;;;;19.00;10.20;;;7.60;99.90;;;;;;5057053;28;20557;-78
2022/01/29 03:56:40;;;;;;;19.73;10.63;;;7.40;99.90;;;;;;5056696;28;20557;-78
2022/01/29 03:59:06;;;;;;;21.03;10.00;;;7.40;99.90;;;;;;5056837;28;20179;-79
2022/01/29 04:01:32;;;;;;;18.50;10.63;;;7.30;99.90;;;;;;5056579;28;20175;-78
2022/01/29 04:03:58;;;;;;;16.40;9.17;;;7.30;99.90;;;;;;5056070;28;20448;-78
2022/01/29 04:06:24;;;;;;;24.30;11.73;;;7.40;99.90;;;;;;5056392;28;20271;-78
2022/01/29 04:08:51;;;;;;;15.10;10.17;;;7.20;99.90;;;;;;5056593;28;20414;-78
2022/01/29 04:11:17;;;;;;;17.37;8.67;;;7.20;99.90;;;;;;5057554;28;20448;-79
2022/01/29 04:13:46;;;;;;;18.40;9.47;;;7.30;99.90;;;;;;5060314;28;20524;-78
2022/01/29 04:16:13;;;;;;;13.20;7.47;;;7.30;99.90;;;;;;5059692;28;20425;-78
2022/01/29 04:18:39;;;;;;;16.50;9.20;;;7.20;99.90;;;;;;5059770;28;20787;-78
2022/01/29 04:21:05;;;;;;;15.97;7.97;;;7.20;99.90;;;;;;5060313;28;20421;-78
2022/01/29 04:23:33;;;;;;;17.47;9.43;;;7.20;99.90;;;;;;5060153;28;20440;-78
2022/01/29 04:26:00;;;;;;;21.37;9.47;;;7.20;99.90;;;;;;5059742;28;20464;-78
2022/01/29 04:28:30;;;;;;;14.87;8.60;;;7.10;99.90;;;;;;5060088;28;20420;-78
2022/01/29 04:31:00;;;;;;;15.83;9.03;;;7.20;99.90;;;;;;5060080;28;20423;-78
2022/01/29 04:33:29;;;;;;;13.63;8.83;;;7.10;99.90;;;;;;5060116;28;20437;-78
2022/01/29 04:36:00;;;;;;;13.70;7.63;;;7.20;99.90;;;;;;5060010;28;20425;-78
2022/01/29 04:38:28;;;;;;;13.97;8.67;;;7.20;99.90;;;;;;5060297;28;20417;-78
2022/01/29 04:40:55;;;;;;;13.97;8.30;;;7.10;99.90;;;;;;5059619;28;20449;-78
2022/01/29 04:43:21;;;;;;;14.80;8.67;;;7.10;99.90;;;;;;5060297;28;20448;-78
2022/01/29 04:45:47;;;;;;;15.07;9.23;;;7.10;99.90;;;;;;5060068;28;20469;-78
2022/01/29 04:48:13;;;;;;;13.63;7.70;;;7.10;99.90;;;;;;5059438;28;20482;-78
2022/01/29 04:50:42;;;;;;;15.63;9.03;;;7.00;99.90;;;;;;5059962;28;20792;-78
2022/01/29 04:53:08;;;;;;;12.60;7.60;;;6.90;99.90;;;;;;5060053;28;20490;-78
2022/01/29 04:55:34;;;;;;;16.30;8.60;;;6.90;99.90;;;;;;5060132;28;20476;-78
2022/01/29 04:58:00;;;;;;;19.63;9.80;;;6.90;99.90;;;;;;5059614;28;20672;-78
2022/01/29 05:00:26;;;;;;;14.90;7.17;;;6.90;99.90;;;;;;5059221;28;20441;-78
2022/01/29 05:02:55;;;;;;;14.20;7.97;;;6.90;99.90;;;;;;5059791;28;20210;-78
2022/01/29 05:05:21;;;;;;;12.30;7.20;;;6.90;99.90;;;;;;5059648;28;20560;-78
2022/01/29 05:07:47;;;;;;;12.37;7.27;;;6.90;99.90;;;;;;5059259;28;20456;-78
2022/01/29 05:10:14;;;;;;;12.50;7.80;;;7.00;99.90;;;;;;5059180;28;20445;-78
2022/01/29 05:12:49;;;;;;;11.30;6.80;;;7.00;99.90;;;;;;5059393;28;20441;-78
2022/01/29 05:15:27;;;;;;;11.80;6.90;;;6.90;99.90;;;;;;5058903;28;20956;-78
2022/01/29 05:28:50;;;;;;;12.73;6.90;;;6.90;99.90;;;;;;5081160;28;20464;-79
2022/01/29 05:31:16;;;;;;;11.77;5.90;;;6.90;99.90;;;;;;5062827;28;20413;-79
2022/01/29 05:33:41;;;;;;;12.83;6.70;;;7.00;99.90;;;;;;5062655;28;20203;-79
2022/01/29 05:36:07;;;;;;;11.40;5.73;;;6.90;99.90;;;;;;5062389;28;20178;-79
2022/01/29 05:38:36;;;;;;;9.60;5.93;;;6.90;99.90;;;;;;5062096;28;20658;-80
2022/01/29 05:41:03;;;;;;;15.53;5.83;;;7.00;99.90;;;;;;5061852;28;20185;-79
2022/01/29 05:43:29;;;;;;;13.40;6.90;;;7.00;99.90;;;;;;5061633;28;20445;-79
2022/01/29 05:45:55;;;;;;;10.20;5.63;;;7.00;99.90;;;;;;5061324;28;20555;-79
2022/01/29 05:48:21;;;;;;;9.30;5.17;;;7.00;99.90;;;;;;5061110;28;20449;-79
2022/01/29 05:50:47;;;;;;;8.30;5.00;;;7.00;99.90;;;;;;5061104;28;20224;-79
2022/01/29 05:53:13;;;;;;;6.73;4.27;;;7.10;99.90;;;;;;5061799;28;20451;-79
2022/01/29 05:55:42;;;;;;;8.40;5.30;;;7.00;99.90;;;;;;5061299;28;20179;-79
2022/01/29 05:58:07;;;;;;;6.73;4.33;;;7.00;99.90;;;;;;5060751;28;20425;-79
2022/01/29 06:00:33;;;;;;;8.10;4.90;;;7.00;99.90;;;;;;5060471;28;20425;-79
2022/01/29 06:03:03;;;;;;;9.77;4.87;;;7.00;99.90;;;;;;5060579;28;20203;-78
2022/01/29 06:05:29;;;;;;;8.50;4.77;;;7.00;99.90;;;;;;5059787;28;20630;-79
2022/01/29 06:07:55;;;;;;;6.17;4.40;;;7.00;99.90;;;;;;5060261;28;20413;-79
2022/01/29 06:10:22;;;;;;;9.63;5.53;;;7.00;99.90;;;;;;5073166;22;20428;-76
2022/01/29 06:13:10;;;;;;;8.00;4.43;;;7.00;99.90;;;;;;5054848;28;20448;-76
2022/01/29 06:15:40;;;;;;;8.30;4.67;;;7.00;99.90;;;;;;5055243;28;20417;-76
2022/01/29 06:18:07;;;;;;;8.10;4.90;;;7.00;99.90;;;;;;5054662;28;20421;-76
2022/01/29 06:20:34;;;;;;;10.93;5.40;;;6.90;99.90;;;;;;5055052;28;20787;-76
2022/01/29 06:23:02;;;;;;;9.40;5.93;;;7.00;99.90;;;;;;5054517;28;20444;-76
2022/01/29 06:25:28;;;;;;;10.80;5.73;;;6.90;99.90;;;;;;5054828;28;20874;-76
2022/01/29 06:27:54;;;;;;;9.10;5.10;;;6.90;99.90;;;;;;5054552;28;20421;-76
2022/01/29 06:30:24;;;;;;;7.73;4.70;;;7.00;99.90;;;;;;5054941;28;20175;-76
2022/01/29 06:32:49;;;;;;;7.53;4.73;;;7.00;99.90;;;;;;5054458;28;20441;-75
2022/01/29 06:35:15;;;;;;;6.10;4.10;;;7.00;99.90;;;;;;5054125;28;20425;-76
2022/01/29 06:37:41;;;;;;;7.53;3.93;;;7.00;99.90;;;;;;5054709;28;20266;-76
2022/01/29 06:40:08;;;;;;;8.00;4.80;;;7.10;99.90;;;;;;5054542;28;20236;-76
2022/01/29 06:42:33;;;;;;;7.20;4.47;;;7.10;99.90;;;;;;5054448;28;20203;-76
2022/01/29 06:45:00;;;;;;;7.73;5.00;;;7.10;99.90;;;;;;5054965;28;20436;-76
2022/01/29 06:47:25;;;;;;;10.43;5.43;;;7.10;99.90;;;;;;5053985;28;20175;-76
2022/01/29 06:49:51;;;;;;;9.50;5.40;;;7.10;99.90;;;;;;5054296;28;20935;-76
2022/01/29 06:52:17;;;;;;;7.70;4.60;;;7.10;99.90;;;;;;5053980;28;20202;-75
2022/01/29 06:54:43;;;;;;;10.70;5.10;;;7.20;99.90;;;;;;5054188;28;20179;-76
2022/01/29 06:57:09;;;;;;;8.20;5.47;;;7.20;99.90;;;;;;5053708;28;20425;-75
2022/01/29 06:59:34;;;;;;;7.80;5.47;;;7.30;99.90;;;;;;5054101;28;20201;-75
2022/01/29 07:02:00;;;;;;;8.37;5.30;;;7.30;99.90;;;;;;5053957;28;20183;-76
2022/01/29 07:04:26;;;;;;;8.67;5.20;;;7.30;99.90;;;;;;5054084;28;20565;-76
2022/01/29 07:06:52;;;;;;;8.90;5.37;;;7.30;99.90;;;;;;5053476;28;20203;-76
2022/01/29 07:09:17;;;;;;;12.03;6.30;;;7.30;99.90;;;;;;5054003;28;20642;-76
2022/01/29 07:11:45;;;;;;;7.97;5.07;;;7.40;99.90;;;;;;5053765;28;20739;-76
2022/01/29 07:14:16;;;;;;;8.93;5.73;;;7.40;99.90;;;;;;5054011;28;20244;-76
2022/01/29 07:16:43;;;;;;;9.00;5.40;;;7.40;99.90;;;;;;5053736;28;20440;-76
2022/01/29 07:19:09;;;;;;;7.10;4.43;;;7.40;99.90;;;;;;5053972;28;20425;-76
2022/01/29 07:21:37;;;;;;;8.70;5.10;;;7.50;99.90;;;;;;5053709;28;20503;-75
2022/01/29 07:24:03;;;;;;;8.17;5.63;;;7.50;99.90;;;;;;5053865;28;20488;-76
2022/01/29 07:26:29;;;;;;;9.23;5.93;;;7.50;99.90;;;;;;5053400;28;21193;-76
2022/01/29 07:28:55;;;;;;;8.10;5.30;;;7.50;99.90;;;;;;5053713;28;20425;-76
2022/01/29 07:31:21;;;;;;;6.97;5.27;;;7.60;99.90;;;;;;5053754;28;20178;-76
2022/01/29 07:33:47;;;;;;;8.90;5.73;;;7.60;99.90;;;;;;5053738;28;20191;-76
2022/01/29 07:36:14;;;;;;;8.60;5.97;;;7.60;99.90;;;;;;5053463;28;20529;-76
2022/01/29 07:38:39;;;;;;;6.83;5.00;;;7.60;99.90;;;;;;5053379;28;20424;-75
2022/01/29 07:41:05;;;;;;;7.30;5.90;;;7.60;99.90;;;;;;5053588;28;20417;-76
2022/01/29 07:43:31;;;;;;;7.37;5.07;;;7.60;99.90;;;;;;5053525;28;20294;-76
2022/01/29 07:45:56;;;;;;;7.80;4.70;;;7.60;99.90;;;;;;5056092;28;20230;-75
2022/01/29 07:48:23;;;;;;;8.33;5.73;;;7.70;99.90;;;;;;5057496;28;20175;-76
2022/01/29 07:50:50;;;;;;;7.07;5.10;;;7.70;99.90;;;;;;5058318;28;20256;-77
2022/01/29 07:53:16;;;;;;;7.83;5.13;;;7.70;99.90;;;;;;5058074;28;20805;-77
2022/01/29 07:55:42;;;;;;;8.40;5.07;;;7.80;99.90;;;;;;5058192;28;20425;-77
2022/01/29 07:58:09;;;;;;;8.00;5.70;;;7.80;99.90;;;;;;5057782;28;20417;-77
2022/01/29 08:00:35;;;;;;;7.80;5.20;;;7.80;99.90;;;;;;5057917;28;20928;-76
2022/01/29 08:03:00;;;;;;;8.17;5.20;;;7.80;99.90;;;;;;5057231;28;20441;-76
2022/01/29 08:05:26;;;;;;;7.80;5.33;;;7.90;99.90;;;;;;5057593;28;20210;-77
2022/01/29 08:07:52;;;;;;;7.97;5.40;;;7.80;99.90;;;;;;5057570;28;20182;-77
2022/01/29 08:10:18;;;;;;;6.30;4.00;;;7.90;99.90;;;;;;5057532;28;20444;-76
2022/01/29 08:12:44;;;;;;;7.10;4.83;;;7.90;99.90;;;;;;5057659;28;20203;-76
2022/01/29 08:15:10;;;;;;;7.57;5.10;;;7.90;99.90;;;;;;5057653;28;20210;-77
2022/01/29 08:17:35;;;;;;;9.07;5.57;;;8.00;99.90;;;;;;5057067;28;20181;-76
2022/01/29 08:20:02;;;;;;;7.53;5.13;;;8.00;99.90;;;;;;5057151;28;20788;-76
2022/01/29 08:22:28;;;;;;;8.80;5.20;;;8.00;99.90;;;;;;5057600;28;20289;-76
2022/01/29 08:24:54;;;;;;;7.00;4.80;;;8.00;99.90;;;;;;5057156;28;20421;-76
2022/01/29 08:27:20;;;;;;;9.30;5.33;;;8.00;99.90;;;;;;5057040;28;20460;-76
2022/01/29 08:29:46;;;;;;;6.80;4.90;;;8.00;99.90;;;;;;5057120;28;20413;-76
2022/01/29 08:32:15;;;;;;;8.93;4.60;;;8.10;99.90;;;;;;5056917;28;20440;-76
2022/01/29 08:34:43;;;;;;;7.27;4.83;;;8.10;99.90;;;;;;5057056;28;20417;-76
2022/01/29 08:37:09;;;;;;;6.73;5.13;;;8.20;99.90;;;;;;5056822;28;20985;-76
2022/01/29 08:39:35;;;;;;;9.17;5.53;;;8.20;99.90;;;;;;5057053;28;20417;-76
2022/01/29 08:42:02;;;;;;;8.57;5.23;;;8.20;99.90;;;;;;5057099;28;20421;-76
2022/01/29 08:44:28;;;;;;;7.23;4.93;;;8.20;99.90;;;;;;5056803;28;20483;-76
2022/01/29 08:46:54;;;;;;;7.20;4.97;;;;;;;;;;5056464;28;20456;-76
2022/01/29 08:49:21;;;;;;;6.07;4.80;;;8.40;99.90;;;;;;5056817;28;20424;-76
2022/01/29 08:51:47;;;;;;;7.00;4.50;;;8.40;99.90;;;;;;5056812;28;20417;-77
2022/01/29 08:54:13;;;;;;;6.73;4.70;;;8.40;99.90;;;;;;5056676;28;20456;-76
2022/01/29 08:56:39;;;;;;;7.07;4.43;;;8.30;99.90;;;;;;5055872;28;20935;-76
2022/01/29 08:59:05;;;;;;;8.30;4.67;;;8.40;99.90;;;;;;5056616;28;20453;-77
2022/01/29 09:01:31;;;;;;;7.83;5.20;;;8.40;99.90;;;;;;5056271;28;20445;-76
2022/01/29 09:03:58;;;;;;;7.60;5.17;;;8.40;99.90;;;;;;5056380;28;20203;-76
2022/01/29 09:06:23;;;;;;;7.03;5.13;;;8.50;99.90;;;;;;5056399;28;20295;-75
2022/01/29 09:08:51;;;;;;;6.97;5.30;;;8.50;99.90;;;;;;5056140;28;20520;-76
2022/01/29 09:11:17;;;;;;;5.83;4.30;;;8.50;99.90;;;;;;5056341;28;20351;-76
2022/01/29 09:13:44;;;;;;;8.77;4.83;;;8.60;99.90;;;;;;5056302;28;20978;-76
2022/01/29 09:16:10;;;;;;;5.77;4.30;;;8.60;99.90;;;;;;5056171;28;20429;-76
2022/01/29 09:18:36;;;;;;;6.63;4.23;;;8.70;99.90;;;;;;5056049;28;21000;-76
2022/01/29 09:21:02;;;;;;;6.97;5.00;;;8.80;99.90;;;;;;5056279;28;20424;-76
2022/01/29 09:23:28;;;;;;;6.50;4.80;;;8.70;99.90;;;;;;5056036;28;20532;-76
2022/01/29 09:25:55;;;;;;;6.20;4.53;;;8.80;99.90;;;;;;5055992;28;20554;-76
2022/01/29 09:28:22;;;;;;;6.20;3.70;;;8.90;99.90;;;;;;5056242;28;20685;-76
2022/01/29 09:30:49;;;;;;;7.20;4.47;;;9.00;99.90;;;;;;5055770;28;20504;-76
2022/01/29 09:33:16;;;;;;;6.83;4.10;;;9.10;99.90;;;;;;5055845;28;20439;-76
2022/01/29 09:35:42;;;;;;;6.73;3.70;;;9.20;99.90;;;;;;5055926;28;20434;-76
2022/01/29 09:38:10;;;;;;;6.60;4.63;;;9.30;99.90;;;;;;5055591;28;20946;-76
2022/01/29 09:40:36;;;;;;;5.27;3.40;;;9.30;99.90;;;;;;5055949;28;20861;-76
2022/01/29 09:43:05;;;;;;;5.97;3.70;;;9.40;99.90;;;;;;5055697;28;20484;-76
2022/01/29 09:45:32;;;;;;;6.57;4.57;;;9.40;99.90;;;;;;5055503;28;20487;-76
2022/01/29 09:48:03;;;;;;;5.70;3.93;;;9.50;99.90;;;;;;5055455;28;20418;-76
2022/01/29 09:50:36;;;;;;;5.30;3.63;;;9.60;99.90;;;;;;5055773;28;20425;-77
2022/01/29 09:53:04;;;;;;;9.23;4.47;;;9.60;99.90;;;;;;5055593;28;20440;-76
2022/01/29 09:55:30;;;;;;;5.67;3.90;;;9.60;99.90;;;;;;5055591;28;20421;-76
2022/01/29 09:57:57;;;;;;;4.33;3.37;;;9.70;99.90;;;;;;5055489;28;20940;-76
2022/01/29 10:00:23;;;;;;;5.83;3.63;;;9.70;99.90;;;;;;5055500;28;20448;-77
2022/01/29 10:03:11;;;;;;;7.40;3.93;;;9.70;99.90;;;;;;5055336;28;20813;-76
2022/01/29 10:05:43;;;;;;;6.40;3.87;;;9.70;99.90;;;;;;5055237;28;21009;-76
2022/01/29 10:08:10;;;;;;;5.87;3.77;;;9.70;99.90;;;;;;5054572;28;20424;-76
2022/01/29 10:10:42;;;;;;;5.10;4.10;;;9.80;99.90;;;;;;5054817;28;21061;-76
2022/01/29 10:13:27;;;;;;;5.30;3.77;;;9.90;99.90;;;;;;5055294;28;20486;-76
2022/01/29 10:16:06;;;;;;;5.17;4.00;;;10.00;99.90;;;;;;5055154;28;20481;-76
2022/01/29 10:18:33;;;;;;;6.50;3.40;;;10.00;99.90;;;;;;5054904;28;20424;-76
2022/01/29 10:21:29;;;;;;;6.50;3.87;;;10.00;99.90;;;;;;5055031;28;20421;-76
2022/01/29 10:24:06;;;;;;;4.83;3.07;;;10.10;99.90;;;;;;5054407;28;20970;-76
2022/01/29 10:26:46;;;;;;;4.30;2.90;;;10.10;99.90;;;;;;5054869;28;20452;-77
2022/01/29 10:29:31;;;;;;;4.87;3.40;;;10.20;99.90;;;;;;5054832;28;20428;-76
2022/01/29 10:32:00;;;;;;;5.90;3.03;;;10.30;99.90;;;;;;5055144;28;20418;-76
2022/01/29 10:34:33;;;;;;;4.90;3.30;;;10.30;99.90;;;;;;5054906;28;20468;-76
2022/01/29 10:37:22;;;;;;;5.83;3.50;;;10.40;99.90;;;;;;5054677;28;20431;-76
2022/01/29 10:39:56;;;;;;;3.80;2.93;;;10.40;99.90;;;;;;5054909;28;20422;-77
2022/01/29 10:42:29;;;;;;;4.30;2.80;;;10.40;99.90;;;;;;5055343;28;20452;-77
2022/01/29 10:44:59;;;;;;;6.03;3.60;;;10.50;99.90;;;;;;5056001;28;20426;-77
2022/01/29 10:47:26;;;;;;;4.67;3.07;;;10.60;99.90;;;;;;5055644;28;20530;-77
2022/01/29 10:49:53;;;;;;;4.70;2.70;;;10.60;99.90;;;;;;5055387;28;20413;-77
2022/01/29 10:52:28;;;;;;;3.60;2.60;;;10.60;99.90;;;;;;5055737;28;20801;-77
2022/01/29 10:54:59;;;;;;;3.10;2.23;;;10.60;99.90;;;;;;5055486;28;20470;-77
2022/01/29 10:57:32;;;;;;;3.40;2.10;;;10.50;99.90;;;;;;5055606;28;20426;-77
2022/01/29 10:59:57;;;;;;;3.33;2.20;;;10.60;99.90;;;;;;5055241;28;20424;-77
2022/01/29 11:02:27;;;;;;;3.80;2.20;;;10.50;99.90;;;;;;5054744;28;20441;-77
2022/01/29 11:04:52;;;;;;;3.23;2.23;;;10.50;99.90;;;;;;5055008;28;20420;-77
2022/01/29 11:07:23;;;;;;;3.00;1.97;;;10.60;99.90;;;;;;5054847;28;20464;-77
2022/01/29 11:09:50;;;;;;;4.60;2.37;;;10.50;99.90;;;;;;5055322;28;20183;-76
2022/01/29 11:12:19;;;;;;;3.57;2.47;;;10.50;99.90;;;;;;5054600;28;20464;-77
2022/01/29 11:14:46;;;;;;;3.97;2.30;;;10.40;99.90;;;;;;5054632;28;20496;-77
2022/01/29 11:17:12;;;;;;;3.10;1.70;;;10.50;99.90;;;;;;5054179;28;20418;-77
2022/01/29 11:19:40;;;;;;;3.10;1.63;;;10.40;99.90;;;;;;5054159;28;20413;-77
2022/01/29 11:22:08;;;;;;;2.93;1.70;;;10.40;99.90;;;;;;5054629;28;20870;-77
2022/01/29 11:24:36;;;;;;;2.70;1.67;;;10.40;99.90;;;;;;5054531;28;20471;-77
2022/01/29 11:27:11;;;;;;;2.90;1.90;;;10.40;99.90;;;;;;5054408;28;20453;-77
2022/01/29 11:29:37;;;;;;;3.37;1.60;;;10.40;99.90;;;;;;5054645;28;20413;-77
2022/01/29 11:32:21;;;;;;;2.90;1.80;;;10.40;99.90;;;;;;5054690;28;20936;-76
2022/01/29 11:35:07;;;;;;;3.00;1.80;;;10.30;99.90;;;;;;5054705;28;20802;-77
2022/01/29 11:37:45;;;;;;;2.60;1.60;;;10.30;99.90;;;;;;5054219;28;20424;-76
2022/01/29 11:40:27;;;;;;;3.30;2.00;;;10.30;99.90;;;;;;5054377;28;20475;-76
2022/01/29 11:43:13;;;;;;;3.40;1.80;;;10.30;99.90;;;;;;5054277;28;20437;-77
2022/01/29 11:45:47;;;;;;;3.40;2.10;;;10.40;99.90;;;;;;5054120;28;20827;-76
2022/01/29 11:48:25;;;;;;;3.23;1.60;;;10.40;99.90;;;;;;5054027;28;20453;-77
2022/01/29 11:50:53;;;;;;;4.70;2.10;;;10.40;99.90;;;;;;5054036;28;20409;-77
2022/01/29 11:53:20;;;;;;;2.90;1.70;;;10.30;99.90;;;;;;5054297;28;20779;-77
2022/01/29 11:55:55;;;;;;;3.20;1.80;;;10.30;99.90;;;;;;5053969;28;20425;-76
2022/01/29 11:58:28;;;;;;;2.80;1.80;;;10.30;99.90;;;;;;5054000;28;20956;-77
2022/01/29 12:00:54;;;;;;;3.40;1.90;;;10.30;99.90;;;;;;5053810;28;20417;-77
2022/01/29 12:03:36;;;;;;;3.07;2.10;;;10.30;99.90;;;;;;5053841;28;20524;-76
2022/01/29 12:09:00;;;;;;;3.33;2.07;;;10.50;99.90;;;;;;5071359;28;20405;-76
2022/01/29 12:14:23;;;;;;;3.73;2.40;;;11.00;99.90;;;;;;5070270;28;20457;-79
2022/01/29 12:16:57;;;;;;;4.10;2.40;;;11.00;99.90;;;;;;5056006;28;20444;-80
2022/01/29 12:19:43;;;;;;;2.90;1.67;;;11.10;99.90;;;;;;5074650;28;20437;-79
2022/01/29 12:22:10;;;;;;;4.13;2.30;;;11.30;99.90;;;;;;5074646;28;20460;-79
2022/01/29 12:24:36;;;;;;;4.10;2.20;;;11.40;99.90;;;;;;5056639;28;20418;-79
2022/01/29 12:27:02;;;;;;;4.47;1.83;;;11.40;99.90;;;;;;5074223;28;20457;-80
2022/01/29 12:29:29;;;;;;;2.90;1.80;;;11.50;99.90;;;;;;5074564;28;20409;-79
2022/01/29 12:31:56;;;;;;;2.60;1.60;;;11.50;99.90;;;;;;5073836;28;20486;-79
2022/01/29 12:34:21;;;;;;;2.97;1.60;;;11.60;99.90;;;;;;5078316;28;20413;-80
2022/01/29 12:36:47;;;;;;;2.27;1.27;;;11.60;99.90;;;;;;5059660;28;20418;-80
2022/01/29 12:39:22;;;;;;;2.87;1.53;;;11.60;99.90;;;;;;5059684;28;20183;-79
2022/01/29 12:42:13;;;;;;;3.60;1.30;;;11.70;99.90;;;;;;5077908;28;20297;-79
2022/01/29 12:45:00;;;;;;;2.77;1.40;;;12.10;99.90;;;;;;5059989;28;20993;-79
2022/01/29 12:47:31;;;;;;;2.50;1.40;;;11.90;99.90;;;;;;5077426;28;20855;-80
2022/01/29 12:49:57;;;;;;;2.60;1.60;;;11.80;99.90;;;;;;5076943;28;20417;-79
2022/01/29 12:52:25;;;;;;;2.57;1.40;;;11.70;99.90;;;;;;5077319;28;20429;-79
2022/01/29 12:54:58;;;;;;;3.10;1.70;;;11.50;99.90;;;;;;5058991;28;20781;-79
2022/01/29 12:57:26;;;;;;;2.53;1.60;;;11.40;99.90;;;;;;5077722;28;20505;-79
2022/01/29 12:59:51;;;;;;;3.13;1.40;;;11.30;99.90;;;;;;5077409;28;20425;-79
2022/01/29 13:02:21;;;;;;;3.67;1.70;;;11.20;99.90;;;;;;5058854;28;20445;-79
2022/01/29 13:04:48;;;;;;;3.43;1.70;;;11.30;99.90;;;;;;5076567;28;20171;-79
2022/01/29 13:07:17;;;;;;;3.20;1.60;;;11.30;99.90;;;;;;5076441;28;20510;-79
2022/01/29 13:09:42;;;;;;;3.10;1.80;;;11.40;99.90;;;;;;5076909;28;20405;-79